^^
Station Historical Data
 
Daily Summary for April 21, 2018 Units:  English    Metric   Both
« Previous Day
Next Day »
Daily Weekly Monthly Yearly Custom
  Current: High: Low: Average:
Temperature: 36.8 °F 39.9 °F 36.8 °F 38.3 °F
Dew Point: 35.0 °F 37.2 °F 34.8 °F 36.1 °F
Humidity: 93% 93% 89% 92%
Wind Speed: 0.0mph 0.0mph 0.0mph 0mph
Wind Gust: 0.0mph 0.0mph - -
WindCalm - - North
Pressure: 30.45 in 30.46 in 30.43 in -
Precipitation: 0.00 in      
Historical Graphs
 
 
Tabular Data for April 21, 2018
Time Temperature Dew Point Pressure Wind Wind Speed Wind Gust Humidity Rainfall Rate (Hourly) solar Conditions
00:03 39.9 °F 37.2 °F 30.44 in Calm     90% 0.00 in WeatherDisplay:10.37 W/m2 CLR
00:08 39.8 °F 36.8 °F 30.44 in Calm     89% 0.00 in WeatherDisplay:10.37 W/m2 CLR
00:13 39.6 °F 36.6 °F 30.44 in Calm     89% 0.00 in WeatherDisplay:10.37 W/m2 CLR
00:18 39.5 °F 36.8 °F 30.44 in Calm     90% 0.00 in WeatherDisplay:10.37 W/m2 CLR
00:23 39.4 °F 36.7 °F 30.45 in Calm     90% 0.00 in WeatherDisplay:10.37 W/m2 CLR
00:28 39.3 °F 36.6 °F 30.45 in Calm     90% 0.00 in WeatherDisplay:10.37 W/m2 CLR
00:33 39.2 °F 36.5 °F 30.45 in Calm     90% 0.00 in WeatherDisplay:10.37 W/m2 CLR
00:38 39.1 °F 36.7 °F 30.45 in Calm     91% 0.00 in WeatherDisplay:10.37 W/m2 CLR
00:43 38.9 °F 36.2 °F 30.45 in Calm     90% 0.00 in WeatherDisplay:10.37 W/m2 CLR
00:48 38.7 °F 36.3 °F 30.45 in Calm     91% 0.00 in WeatherDisplay:10.37 W/m2 CLR
00:53 38.6 °F 36.2 °F 30.45 in Calm     91% 0.00 in WeatherDisplay:10.37 W/m2 CLR
00:58 38.5 °F 36.1 °F 30.45 in Calm     91% 0.00 in WeatherDisplay:10.37 W/m2 CLR
01:03 38.5 °F 36.1 °F 30.45 in Calm     91% 0.00 in WeatherDisplay:10.37 W/m2 CLR
01:08 38.4 °F 36.3 °F 30.45 in Calm     92% 0.00 in WeatherDisplay:10.37 W/m2 CLR
01:13 38.5 °F 36.4 °F 30.46 in Calm     92% 0.00 in WeatherDisplay:10.37 W/m2 CLR
01:18 38.5 °F 36.4 °F 30.45 in Calm     92% 0.00 in WeatherDisplay:10.37 W/m2 CLR
01:23 38.5 °F 36.4 °F 30.45 in Calm     92% 0.00 in WeatherDisplay:10.37 W/m2 CLR
01:28 38.6 °F 36.5 °F 30.45 in Calm     92% 0.00 in WeatherDisplay:10.37 W/m2 CLR
01:33 38.6 °F 36.5 °F 30.45 in Calm     92% 0.00 in WeatherDisplay:10.37 W/m2 CLR
01:38 38.6 °F 36.5 °F 30.45 in Calm     92% 0.00 in WeatherDisplay:10.37 W/m2 CLR
01:43 38.6 °F 36.5 °F 30.45 in Calm     92% 0.00 in WeatherDisplay:10.37 W/m2 CLR
01:48 38.5 °F 36.4 °F 30.45 in Calm     92% 0.00 in WeatherDisplay:10.37 W/m2 CLR
01:53 38.4 °F 36.3 °F 30.45 in Calm     92% 0.00 in WeatherDisplay:10.37 W/m2 CLR
01:58 38.4 °F 36.3 °F 30.45 in Calm     92% 0.00 in WeatherDisplay:10.37 W/m2 CLR
02:03 38.4 °F 36.3 °F 30.44 in Calm     92% 0.00 in WeatherDisplay:10.37 W/m2 CLR
02:08 38.3 °F 36.2 °F 30.44 in Calm     92% 0.00 in WeatherDisplay:10.37 W/m2 CLR
02:13 38.2 °F 36.1 °F 30.44 in Calm     92% 0.00 in WeatherDisplay:10.37 W/m2 CLR
02:18 38.1 °F 36.0 °F 30.44 in Calm     92% 0.00 in WeatherDisplay:10.37 W/m2 CLR
02:23 38.0 °F 35.9 °F 30.43 in Calm     92% 0.00 in WeatherDisplay:10.37 W/m2 CLR
02:28 37.9 °F 35.8 °F 30.44 in Calm     92% 0.00 in WeatherDisplay:10.37 W/m2 CLR
02:33 37.7 °F 35.6 °F 30.44 in Calm     92% 0.00 in WeatherDisplay:10.37 W/m2 CLR
02:34 37.7 °F 35.6 °F 30.44 in Calm     92% 0.00 in WeatherDisplay:10.37 W/m2 CLR
02:39 37.5 °F 35.4 °F 30.44 in Calm     92% 0.00 in WeatherDisplay:10.37 W/m2 CLR
02:44 37.4 °F 35.3 °F 30.44 in Calm     92% 0.00 in WeatherDisplay:10.37 W/m2 CLR
02:49 37.3 °F 35.2 °F 30.44 in Calm     92% 0.00 in WeatherDisplay:10.37 W/m2 CLR
02:54 37.2 °F 35.1 °F 30.45 in Calm     92% 0.00 in WeatherDisplay:10.37 W/m2 CLR
02:59 37.1 °F 35.0 °F 30.45 in Calm     92% 0.00 in WeatherDisplay:10.37 W/m2 CLR
03:04 36.9 °F 34.8 °F 30.45 in Calm     92% 0.00 in WeatherDisplay:10.37 W/m2 CLR
03:09 36.9 °F 35.1 °F 30.45 in Calm     93% 0.00 in WeatherDisplay:10.37 W/m2 CLR
03:14 36.8 °F 35.0 °F 30.45 in Calm     93% 0.00 in WeatherDisplay:10.37 W/m2 CLR
03:19 36.8 °F 35.0 °F 30.45 in Calm     93% 0.00 in WeatherDisplay:10.37 W/m2 CLR
Gayle H. Riggsbee Observatory (GHRO)
Compliments of Weather Underground - 768 kb